Progresso, New Mexico
Current Conditions -  °F | °C
As of 9:55 AM on Monday 22 Dec 2014 (Local Time) from K0E0 Reporting Station
Scattered Clouds Scattered Clouds  
Wind Chill: 51°   Ceiling: Unl
Heat Index: 51°   Visibility: 10mi
Dew Point: 30°   Wind: 13mph
Humidity: 44%   Direction: 270°W
Pressure: 29.88"   Gusts: 20mph
Location:  34.4464°N, 106.01°W
Report Text: K0E0 221655Z AUTO 27011G17KT 10SM SCT049 11/M01 A2988 RMK AO2 T01051013
Loading
Personal Weather Stations






























Interactive Weather Map New forecast layout! Learn more

10-Day Weather Forecast

Advertisements
Track Severe Weather on mobile